sensor_id;sensor_type;location;lat;lon;timestamp;P1;durP1;ratioP1;P2;durP2;ratioP2
2305;SDS011;1161;51.922;8.896;2023-09-19T00:00:25;2.90;;;2.67;;
2305;SDS011;1161;51.922;8.896;2023-09-19T00:02:53;3.23;;;3.03;;
2305;SDS011;1161;51.922;8.896;2023-09-19T00:05:24;5.03;;;3.37;;
2305;SDS011;1161;51.922;8.896;2023-09-19T00:07:53;4.40;;;3.30;;
2305;SDS011;1161;51.922;8.896;2023-09-19T00:10:22;7.73;;;4.40;;
2305;SDS011;1161;51.922;8.896;2023-09-19T00:12:49;4.47;;;3.00;;
2305;SDS011;1161;51.922;8.896;2023-09-19T00:15:18;4.23;;;2.93;;
2305;SDS011;1161;51.922;8.896;2023-09-19T00:17:45;11.63;;;3.53;;
2305;SDS011;1161;51.922;8.896;2023-09-19T00:20:14;4.90;;;2.40;;
2305;SDS011;1161;51.922;8.896;2023-09-19T00:22:44;7.37;;;2.97;;
2305;SDS011;1161;51.922;8.896;2023-09-19T00:25:11;6.93;;;3.90;;
2305;SDS011;1161;51.922;8.896;2023-09-19T00:27:40;4.90;;;3.17;;
2305;SDS011;1161;51.922;8.896;2023-09-19T00:30:09;10.43;;;3.80;;
2305;SDS011;1161;51.922;8.896;2023-09-19T00:32:41;9.13;;;3.00;;
2305;SDS011;1161;51.922;8.896;2023-09-19T00:35:08;4.17;;;3.17;;
2305;SDS011;1161;51.922;8.896;2023-09-19T00:37:36;5.20;;;3.60;;
2305;SDS011;1161;51.922;8.896;2023-09-19T00:40:07;13.83;;;3.60;;
2305;SDS011;1161;51.922;8.896;2023-09-19T00:42:37;5.73;;;4.50;;
2305;SDS011;1161;51.922;8.896;2023-09-19T00:45:06;6.67;;;3.77;;
2305;SDS011;1161;51.922;8.896;2023-09-19T00:47:36;7.23;;;4.03;;
2305;SDS011;1161;51.922;8.896;2023-09-19T00:50:03;3.20;;;3.00;;
2305;SDS011;1161;51.922;8.896;2023-09-19T00:52:33;9.80;;;3.63;;
2305;SDS011;1161;51.922;8.896;2023-09-19T00:55:02;7.57;;;2.93;;
2305;SDS011;1161;51.922;8.896;2023-09-19T00:57:31;6.60;;;4.53;;
2305;SDS011;1161;51.922;8.896;2023-09-19T00:59:59;3.93;;;3.53;;
2305;SDS011;1161;51.922;8.896;2023-09-19T01:02:30;7.33;;;4.40;;
2305;SDS011;1161;51.922;8.896;2023-09-19T01:04:57;8.23;;;3.77;;
2305;SDS011;1161;51.922;8.896;2023-09-19T01:07:24;7.23;;;4.20;;
2305;SDS011;1161;51.922;8.896;2023-09-19T01:09:51;5.43;;;3.60;;
2305;SDS011;1161;51.922;8.896;2023-09-19T01:12:22;7.73;;;3.63;;
2305;SDS011;1161;51.922;8.896;2023-09-19T01:14:54;11.20;;;3.77;;
2305;SDS011;1161;51.922;8.896;2023-09-19T01:17:24;14.07;;;4.03;;
2305;SDS011;1161;51.922;8.896;2023-09-19T01:20:11;9.30;;;3.93;;
2305;SDS011;1161;51.922;8.896;2023-09-19T01:22:46;8.63;;;3.43;;
2305;SDS011;1161;51.922;8.896;2023-09-19T01:28:33;5.70;;;3.50;;
2305;SDS011;1161;51.922;8.896;2023-09-19T01:31:06;5.47;;;3.57;;
2305;SDS011;1161;51.922;8.896;2023-09-19T01:36:25;4.27;;;3.97;;
2305;SDS011;1161;51.922;8.896;2023-09-19T01:38:54;9.20;;;4.77;;
2305;SDS011;1161;51.922;8.896;2023-09-19T01:41:25;7.70;;;5.00;;
2305;SDS011;1161;51.922;8.896;2023-09-19T01:44:02;4.30;;;3.90;;
2305;SDS011;1161;51.922;8.896;2023-09-19T01:46:34;6.33;;;4.47;;
2305;SDS011;1161;51.922;8.896;2023-09-19T01:49:05;6.60;;;4.33;;
2305;SDS011;1161;51.922;8.896;2023-09-19T01:51:40;8.73;;;5.07;;
2305;SDS011;1161;51.922;8.896;2023-09-19T01:54:12;8.20;;;4.67;;
2305;SDS011;1161;51.922;8.896;2023-09-19T01:56:40;7.33;;;5.20;;
2305;SDS011;1161;51.922;8.896;2023-09-19T01:59:11;20.20;;;4.70;;
2305;SDS011;1161;51.922;8.896;2023-09-19T02:01:42;7.93;;;3.87;;
2305;SDS011;1161;51.922;8.896;2023-09-19T02:04:10;11.30;;;4.40;;
2305;SDS011;1161;51.922;8.896;2023-09-19T02:06:39;10.37;;;5.07;;
2305;SDS011;1161;51.922;8.896;2023-09-19T02:09:06;7.83;;;4.07;;
2305;SDS011;1161;51.922;8.896;2023-09-19T02:11:34;10.23;;;4.40;;
2305;SDS011;1161;51.922;8.896;2023-09-19T02:14:01;18.00;;;4.97;;
2305;SDS011;1161;51.922;8.896;2023-09-19T02:16:29;8.60;;;4.37;;
2305;SDS011;1161;51.922;8.896;2023-09-19T02:18:57;10.40;;;4.40;;
2305;SDS011;1161;51.922;8.896;2023-09-19T02:21:25;19.63;;;5.60;;
2305;SDS011;1161;51.922;8.896;2023-09-19T02:23:54;9.20;;;4.97;;
2305;SDS011;1161;51.922;8.896;2023-09-19T02:26:22;10.70;;;5.93;;
2305;SDS011;1161;51.922;8.896;2023-09-19T02:28:52;17.87;;;5.30;;
2305;SDS011;1161;51.922;8.896;2023-09-19T02:31:19;9.23;;;4.30;;
2305;SDS011;1161;51.922;8.896;2023-09-19T02:33:46;16.50;;;5.13;;
2305;SDS011;1161;51.922;8.896;2023-09-19T02:36:14;7.27;;;5.37;;
2305;SDS011;1161;51.922;8.896;2023-09-19T02:38:42;9.53;;;6.47;;
2305;SDS011;1161;51.922;8.896;2023-09-19T02:41:10;10.10;;;4.67;;
2305;SDS011;1161;51.922;8.896;2023-09-19T02:43:37;11.60;;;5.00;;
2305;SDS011;1161;51.922;8.896;2023-09-19T02:46:05;12.20;;;6.03;;
2305;SDS011;1161;51.922;8.896;2023-09-19T02:48:32;10.57;;;4.50;;
2305;SDS011;1161;51.922;8.896;2023-09-19T02:51:00;11.80;;;6.10;;
2305;SDS011;1161;51.922;8.896;2023-09-19T02:53:28;8.00;;;5.00;;
2305;SDS011;1161;51.922;8.896;2023-09-19T02:55:56;14.70;;;5.70;;
2305;SDS011;1161;51.922;8.896;2023-09-19T02:58:22;12.77;;;4.93;;
2305;SDS011;1161;51.922;8.896;2023-09-19T03:00:51;9.50;;;4.57;;
2305;SDS011;1161;51.922;8.896;2023-09-19T03:03:18;5.43;;;3.93;;
2305;SDS011;1161;51.922;8.896;2023-09-19T03:05:45;11.20;;;5.00;;
2305;SDS011;1161;51.922;8.896;2023-09-19T03:08:12;17.90;;;5.23;;
2305;SDS011;1161;51.922;8.896;2023-09-19T03:10:42;16.80;;;5.47;;
2305;SDS011;1161;51.922;8.896;2023-09-19T03:13:09;11.20;;;4.03;;
2305;SDS011;1161;51.922;8.896;2023-09-19T03:15:40;18.93;;;6.27;;
2305;SDS011;1161;51.922;8.896;2023-09-19T03:18:10;11.13;;;5.03;;
2305;SDS011;1161;51.922;8.896;2023-09-19T03:20:42;10.93;;;5.17;;
2305;SDS011;1161;51.922;8.896;2023-09-19T03:23:10;23.27;;;5.30;;
2305;SDS011;1161;51.922;8.896;2023-09-19T03:25:42;11.63;;;5.90;;
2305;SDS011;1161;51.922;8.896;2023-09-19T03:28:11;12.93;;;6.50;;
2305;SDS011;1161;51.922;8.896;2023-09-19T03:30:38;6.07;;;4.10;;
2305;SDS011;1161;51.922;8.896;2023-09-19T03:33:05;13.53;;;4.03;;
2305;SDS011;1161;51.922;8.896;2023-09-19T03:35:35;11.10;;;5.37;;
2305;SDS011;1161;51.922;8.896;2023-09-19T03:38:03;13.20;;;4.80;;
2305;SDS011;1161;51.922;8.896;2023-09-19T03:40:30;13.60;;;5.80;;
2305;SDS011;1161;51.922;8.896;2023-09-19T03:42:59;8.77;;;4.80;;
2305;SDS011;1161;51.922;8.896;2023-09-19T03:45:26;6.73;;;4.70;;
2305;SDS011;1161;51.922;8.896;2023-09-19T03:47:53;24.80;;;6.03;;
2305;SDS011;1161;51.922;8.896;2023-09-19T03:50:20;5.90;;;4.20;;
2305;SDS011;1161;51.922;8.896;2023-09-19T03:52:47;16.97;;;5.17;;
2305;SDS011;1161;51.922;8.896;2023-09-19T03:55:14;24.13;;;5.70;;
2305;SDS011;1161;51.922;8.896;2023-09-19T03:57:41;10.73;;;5.70;;
2305;SDS011;1161;51.922;8.896;2023-09-19T04:00:09;11.70;;;5.00;;
2305;SDS011;1161;51.922;8.896;2023-09-19T04:02:39;15.27;;;5.90;;
2305;SDS011;1161;51.922;8.896;2023-09-19T04:05:07;7.00;;;4.80;;
2305;SDS011;1161;51.922;8.896;2023-09-19T04:07:35;15.97;;;5.83;;
2305;SDS011;1161;51.922;8.896;2023-09-19T04:10:01;8.20;;;4.53;;
2305;SDS011;1161;51.922;8.896;2023-09-19T04:12:28;12.93;;;4.50;;
2305;SDS011;1161;51.922;8.896;2023-09-19T04:14:55;13.20;;;5.93;;
2305;SDS011;1161;51.922;8.896;2023-09-19T04:17:23;21.53;;;3.97;;
2305;SDS011;1161;51.922;8.896;2023-09-19T04:19:50;13.33;;;3.90;;
2305;SDS011;1161;51.922;8.896;2023-09-19T04:22:17;8.30;;;3.13;;
2305;SDS011;1161;51.922;8.896;2023-09-19T04:24:44;3.90;;;3.20;;
2305;SDS011;1161;51.922;8.896;2023-09-19T04:27:11;20.00;;;3.83;;
2305;SDS011;1161;51.922;8.896;2023-09-19T04:29:40;14.17;;;3.30;;
2305;SDS011;1161;51.922;8.896;2023-09-19T04:32:07;6.37;;;3.10;;
2305;SDS011;1161;51.922;8.896;2023-09-19T04:34:36;15.07;;;4.37;;
2305;SDS011;1161;51.922;8.896;2023-09-19T04:37:03;7.53;;;3.57;;
2305;SDS011;1161;51.922;8.896;2023-09-19T04:39:31;11.50;;;4.07;;
2305;SDS011;1161;51.922;8.896;2023-09-19T04:41:59;7.27;;;4.17;;
2305;SDS011;1161;51.922;8.896;2023-09-19T04:44:26;9.10;;;4.07;;
2305;SDS011;1161;51.922;8.896;2023-09-19T04:46:53;12.00;;;3.10;;
2305;SDS011;1161;51.922;8.896;2023-09-19T04:49:20;5.50;;;2.50;;
2305;SDS011;1161;51.922;8.896;2023-09-19T04:51:48;11.13;;;3.67;;
2305;SDS011;1161;51.922;8.896;2023-09-19T04:54:14;7.00;;;3.07;;
2305;SDS011;1161;51.922;8.896;2023-09-19T04:56:43;14.67;;;3.30;;
2305;SDS011;1161;51.922;8.896;2023-09-19T04:59:10;17.50;;;3.83;;
2305;SDS011;1161;51.922;8.896;2023-09-19T05:01:37;14.00;;;4.17;;
2305;SDS011;1161;51.922;8.896;2023-09-19T05:04:04;11.40;;;2.93;;
2305;SDS011;1161;51.922;8.896;2023-09-19T05:06:31;7.23;;;3.33;;
2305;SDS011;1161;51.922;8.896;2023-09-19T05:09:00;13.23;;;2.73;;
2305;SDS011;1161;51.922;8.896;2023-09-19T05:11:30;11.10;;;3.57;;
2305;SDS011;1161;51.922;8.896;2023-09-19T05:13:57;12.93;;;4.07;;
2305;SDS011;1161;51.922;8.896;2023-09-19T05:16:28;23.23;;;4.10;;
2305;SDS011;1161;51.922;8.896;2023-09-19T05:18:55;16.37;;;3.53;;
2305;SDS011;1161;51.922;8.896;2023-09-19T05:21:22;6.60;;;4.10;;
2305;SDS011;1161;51.922;8.896;2023-09-19T05:23:51;9.10;;;2.90;;
2305;SDS011;1161;51.922;8.896;2023-09-19T05:26:19;8.13;;;3.17;;
2305;SDS011;1161;51.922;8.896;2023-09-19T05:28:46;13.50;;;3.37;;
2305;SDS011;1161;51.922;8.896;2023-09-19T05:31:14;22.63;;;2.70;;
2305;SDS011;1161;51.922;8.896;2023-09-19T05:33:41;19.30;;;3.73;;
2305;SDS011;1161;51.922;8.896;2023-09-19T05:36:08;15.47;;;3.47;;
2305;SDS011;1161;51.922;8.896;2023-09-19T05:38:37;12.87;;;4.10;;
2305;SDS011;1161;51.922;8.896;2023-09-19T05:41:06;6.17;;;2.57;;
2305;SDS011;1161;51.922;8.896;2023-09-19T05:43:34;6.30;;;2.90;;
2305;SDS011;1161;51.922;8.896;2023-09-19T05:46:02;18.47;;;4.33;;
2305;SDS011;1161;51.922;8.896;2023-09-19T05:48:29;10.67;;;2.57;;
2305;SDS011;1161;51.922;8.896;2023-09-19T05:50:57;11.37;;;3.10;;
2305;SDS011;1161;51.922;8.896;2023-09-19T05:53:25;6.27;;;2.83;;
2305;SDS011;1161;51.922;8.896;2023-09-19T05:55:52;9.13;;;2.63;;
2305;SDS011;1161;51.922;8.896;2023-09-19T05:58:19;12.63;;;3.30;;
2305;SDS011;1161;51.922;8.896;2023-09-19T06:00:47;5.60;;;3.23;;
2305;SDS011;1161;51.922;8.896;2023-09-19T06:03:14;9.40;;;4.40;;
2305;SDS011;1161;51.922;8.896;2023-09-19T06:05:42;8.00;;;2.50;;
2305;SDS011;1161;51.922;8.896;2023-09-19T06:08:11;18.43;;;3.17;;
2305;SDS011;1161;51.922;8.896;2023-09-19T06:10:38;11.20;;;3.53;;
2305;SDS011;1161;51.922;8.896;2023-09-19T06:13:06;6.13;;;2.63;;
2305;SDS011;1161;51.922;8.896;2023-09-19T06:15:35;7.00;;;2.80;;
2305;SDS011;1161;51.922;8.896;2023-09-19T06:18:03;5.50;;;3.13;;
2305;SDS011;1161;51.922;8.896;2023-09-19T06:20:31;11.30;;;3.57;;
2305;SDS011;1161;51.922;8.896;2023-09-19T06:22:58;21.87;;;3.90;;
2305;SDS011;1161;51.922;8.896;2023-09-19T06:25:28;14.20;;;3.30;;
2305;SDS011;1161;51.922;8.896;2023-09-19T06:27:55;11.17;;;3.90;;
2305;SDS011;1161;51.922;8.896;2023-09-19T06:30:23;21.70;;;3.37;;
2305;SDS011;1161;51.922;8.896;2023-09-19T06:32:55;7.37;;;2.73;;
2305;SDS011;1161;51.922;8.896;2023-09-19T06:35:23;4.97;;;3.27;;
2305;SDS011;1161;51.922;8.896;2023-09-19T06:37:51;12.90;;;3.27;;
2305;SDS011;1161;51.922;8.896;2023-09-19T06:40:20;9.57;;;2.83;;
2305;SDS011;1161;51.922;8.896;2023-09-19T06:42:47;8.20;;;3.40;;
2305;SDS011;1161;51.922;8.896;2023-09-19T06:45:18;7.50;;;2.73;;
2305;SDS011;1161;51.922;8.896;2023-09-19T06:47:45;10.63;;;4.20;;
2305;SDS011;1161;51.922;8.896;2023-09-19T06:50:15;8.10;;;2.73;;
2305;SDS011;1161;51.922;8.896;2023-09-19T06:52:46;8.50;;;3.20;;
2305;SDS011;1161;51.922;8.896;2023-09-19T06:55:15;5.70;;;3.33;;
2305;SDS011;1161;51.922;8.896;2023-09-19T06:57:43;8.43;;;3.43;;
2305;SDS011;1161;51.922;8.896;2023-09-19T07:00:10;15.63;;;2.90;;
2305;SDS011;1161;51.922;8.896;2023-09-19T07:02:43;23.60;;;4.03;;
2305;SDS011;1161;51.922;8.896;2023-09-19T07:05:10;9.10;;;2.90;;
2305;SDS011;1161;51.922;8.896;2023-09-19T07:07:37;10.70;;;2.80;;
2305;SDS011;1161;51.922;8.896;2023-09-19T07:10:06;7.37;;;3.40;;
2305;SDS011;1161;51.922;8.896;2023-09-19T07:12:36;16.03;;;3.63;;
2305;SDS011;1161;51.922;8.896;2023-09-19T07:15:03;9.90;;;2.60;;
2305;SDS011;1161;51.922;8.896;2023-09-19T07:17:31;12.67;;;3.63;;
2305;SDS011;1161;51.922;8.896;2023-09-19T07:19:58;5.67;;;2.70;;
2305;SDS011;1161;51.922;8.896;2023-09-19T07:22:25;4.60;;;2.80;;
2305;SDS011;1161;51.922;8.896;2023-09-19T07:24:52;6.50;;;2.60;;
2305;SDS011;1161;51.922;8.896;2023-09-19T07:27:20;10.57;;;2.20;;
2305;SDS011;1161;51.922;8.896;2023-09-19T07:29:47;9.23;;;2.87;;
2305;SDS011;1161;51.922;8.896;2023-09-19T07:32:14;17.03;;;3.50;;
2305;SDS011;1161;51.922;8.896;2023-09-19T07:34:42;12.00;;;3.00;;
2305;SDS011;1161;51.922;8.896;2023-09-19T07:37:10;11.20;;;2.70;;
2305;SDS011;1161;51.922;8.896;2023-09-19T07:39:36;10.83;;;3.33;;
2305;SDS011;1161;51.922;8.896;2023-09-19T07:42:03;8.77;;;3.37;;
2305;SDS011;1161;51.922;8.896;2023-09-19T07:44:33;19.40;;;4.13;;
2305;SDS011;1161;51.922;8.896;2023-09-19T07:47:01;6.37;;;3.23;;
2305;SDS011;1161;51.922;8.896;2023-09-19T07:49:28;6.87;;;2.53;;
2305;SDS011;1161;51.922;8.896;2023-09-19T07:51:55;8.27;;;2.67;;
2305;SDS011;1161;51.922;8.896;2023-09-19T07:54:22;6.20;;;2.53;;
2305;SDS011;1161;51.922;8.896;2023-09-19T07:56:49;6.40;;;3.30;;
2305;SDS011;1161;51.922;8.896;2023-09-19T07:59:16;15.23;;;5.00;;
2305;SDS011;1161;51.922;8.896;2023-09-19T08:01:44;18.20;;;2.90;;
2305;SDS011;1161;51.922;8.896;2023-09-19T08:04:12;26.17;;;3.37;;
2305;SDS011;1161;51.922;8.896;2023-09-19T08:06:39;10.43;;;3.50;;
2305;SDS011;1161;51.922;8.896;2023-09-19T08:09:06;15.63;;;3.30;;
2305;SDS011;1161;51.922;8.896;2023-09-19T08:11:36;12.90;;;4.50;;
2305;SDS011;1161;51.922;8.896;2023-09-19T08:14:02;11.77;;;3.73;;
2305;SDS011;1161;51.922;8.896;2023-09-19T08:16:31;10.93;;;3.33;;
2305;SDS011;1161;51.922;8.896;2023-09-19T08:18:59;9.10;;;3.37;;
2305;SDS011;1161;51.922;8.896;2023-09-19T08:21:26;9.47;;;2.13;;
2305;SDS011;1161;51.922;8.896;2023-09-19T08:23:54;11.47;;;3.70;;
2305;SDS011;1161;51.922;8.896;2023-09-19T08:26:22;14.90;;;2.70;;
2305;SDS011;1161;51.922;8.896;2023-09-19T08:28:50;18.37;;;3.33;;
2305;SDS011;1161;51.922;8.896;2023-09-19T08:31:18;15.97;;;2.13;;
2305;SDS011;1161;51.922;8.896;2023-09-19T08:33:46;10.53;;;2.70;;
2305;SDS011;1161;51.922;8.896;2023-09-19T08:36:15;11.90;;;2.67;;
2305;SDS011;1161;51.922;8.896;2023-09-19T08:38:42;9.03;;;2.70;;
2305;SDS011;1161;51.922;8.896;2023-09-19T08:41:09;8.03;;;3.00;;
2305;SDS011;1161;51.922;8.896;2023-09-19T08:43:36;3.33;;;2.27;;
2305;SDS011;1161;51.922;8.896;2023-09-19T08:46:05;9.20;;;3.57;;
2305;SDS011;1161;51.922;8.896;2023-09-19T08:48:36;6.80;;;2.70;;
2305;SDS011;1161;51.922;8.896;2023-09-19T08:51:06;9.10;;;3.07;;
2305;SDS011;1161;51.922;8.896;2023-09-19T08:53:36;19.93;;;4.07;;
2305;SDS011;1161;51.922;8.896;2023-09-19T08:56:09;7.17;;;2.80;;
2305;SDS011;1161;51.922;8.896;2023-09-19T08:58:39;6.60;;;3.13;;
2305;SDS011;1161;51.922;8.896;2023-09-19T09:01:13;4.03;;;2.60;;
2305;SDS011;1161;51.922;8.896;2023-09-19T09:03:41;7.13;;;2.97;;
2305;SDS011;1161;51.922;8.896;2023-09-19T09:06:12;9.93;;;3.40;;
2305;SDS011;1161;51.922;8.896;2023-09-19T09:08:42;9.00;;;2.17;;
2305;SDS011;1161;51.922;8.896;2023-09-19T09:11:10;19.93;;;4.63;;
2305;SDS011;1161;51.922;8.896;2023-09-19T09:13:37;3.63;;;2.90;;
2305;SDS011;1161;51.922;8.896;2023-09-19T09:16:04;14.33;;;3.00;;
2305;SDS011;1161;51.922;8.896;2023-09-19T09:18:31;11.97;;;3.33;;
2305;SDS011;1161;51.922;8.896;2023-09-19T09:20:58;9.40;;;3.83;;
2305;SDS011;1161;51.922;8.896;2023-09-19T09:23:25;5.73;;;2.90;;
2305;SDS011;1161;51.922;8.896;2023-09-19T09:25:56;7.27;;;3.83;;
2305;SDS011;1161;51.922;8.896;2023-09-19T09:28:25;10.70;;;3.27;;
2305;SDS011;1161;51.922;8.896;2023-09-19T09:30:53;10.87;;;5.10;;
2305;SDS011;1161;51.922;8.896;2023-09-19T09:33:20;6.67;;;2.90;;
2305;SDS011;1161;51.922;8.896;2023-09-19T09:35:49;19.40;;;5.40;;
2305;SDS011;1161;51.922;8.896;2023-09-19T09:38:19;9.97;;;2.90;;
2305;SDS011;1161;51.922;8.896;2023-09-19T09:40:47;17.70;;;3.93;;
2305;SDS011;1161;51.922;8.896;2023-09-19T09:43:27;18.53;;;4.17;;
2305;SDS011;1161;51.922;8.896;2023-09-19T09:46:13;6.77;;;2.83;;
2305;SDS011;1161;51.922;8.896;2023-09-19T09:49:07;24.57;;;3.90;;
2305;SDS011;1161;51.922;8.896;2023-09-19T09:51:44;13.57;;;3.50;;
2305;SDS011;1161;51.922;8.896;2023-09-19T09:54:14;10.07;;;3.37;;
2305;SDS011;1161;51.922;8.896;2023-09-19T09:56:54;17.60;;;4.23;;
2305;SDS011;1161;51.922;8.896;2023-09-19T10:02:16;10.13;;;4.00;;
2305;SDS011;1161;51.922;8.896;2023-09-19T10:04:51;21.93;;;4.50;;
2305;SDS011;1161;51.922;8.896;2023-09-19T10:07:24;10.60;;;3.23;;
2305;SDS011;1161;51.922;8.896;2023-09-19T10:09:57;30.80;;;4.30;;
2305;SDS011;1161;51.922;8.896;2023-09-19T10:12:30;12.20;;;3.83;;
2305;SDS011;1161;51.922;8.896;2023-09-19T10:14:59;10.90;;;3.83;;
2305;SDS011;1161;51.922;8.896;2023-09-19T10:17:27;9.93;;;4.67;;
2305;SDS011;1161;51.922;8.896;2023-09-19T10:19:56;7.43;;;2.90;;
2305;SDS011;1161;51.922;8.896;2023-09-19T10:22:24;5.70;;;3.00;;
2305;SDS011;1161;51.922;8.896;2023-09-19T10:24:52;3.60;;;3.27;;
2305;SDS011;1161;51.922;8.896;2023-09-19T10:27:20;10.63;;;4.57;;
2305;SDS011;1161;51.922;8.896;2023-09-19T10:29:48;9.50;;;3.50;;
2305;SDS011;1161;51.922;8.896;2023-09-19T10:32:17;8.23;;;3.20;;
2305;SDS011;1161;51.922;8.896;2023-09-19T10:34:45;13.53;;;3.87;;
2305;SDS011;1161;51.922;8.896;2023-09-19T10:37:13;10.53;;;3.40;;
2305;SDS011;1161;51.922;8.896;2023-09-19T10:39:41;15.30;;;4.00;;
2305;SDS011;1161;51.922;8.896;2023-09-19T10:42:13;6.27;;;3.30;;
2305;SDS011;1161;51.922;8.896;2023-09-19T10:44:42;12.07;;;3.40;;
2305;SDS011;1161;51.922;8.896;2023-09-19T10:47:13;17.50;;;4.80;;
2305;SDS011;1161;51.922;8.896;2023-09-19T10:49:44;7.33;;;3.00;;
2305;SDS011;1161;51.922;8.896;2023-09-19T10:52:12;14.90;;;3.57;;
2305;SDS011;1161;51.922;8.896;2023-09-19T10:54:45;12.20;;;4.20;;
2305;SDS011;1161;51.922;8.896;2023-09-19T10:57:18;7.03;;;2.73;;
2305;SDS011;1161;51.922;8.896;2023-09-19T11:00:00;6.27;;;2.80;;
2305;SDS011;1161;51.922;8.896;2023-09-19T11:11:39;6.03;;;2.87;;
2305;SDS011;1161;51.922;8.896;2023-09-19T11:14:13;10.53;;;3.47;;
2305;SDS011;1161;51.922;8.896;2023-09-19T11:16:40;7.17;;;3.07;;
2305;SDS011;1161;51.922;8.896;2023-09-19T11:25:52;9.63;;;3.80;;
2305;SDS011;1161;51.922;8.896;2023-09-19T11:28:29;8.83;;;3.50;;
2305;SDS011;1161;51.922;8.896;2023-09-19T11:30:56;11.07;;;2.90;;
2305;SDS011;1161;51.922;8.896;2023-09-19T11:33:25;6.13;;;3.37;;
2305;SDS011;1161;51.922;8.896;2023-09-19T11:35:59;11.37;;;3.73;;
2305;SDS011;1161;51.922;8.896;2023-09-19T11:41:39;3.87;;;3.47;;
2305;SDS011;1161;51.922;8.896;2023-09-19T11:47:00;5.17;;;3.73;;
2305;SDS011;1161;51.922;8.896;2023-09-19T11:49:29;8.00;;;3.27;;
2305;SDS011;1161;51.922;8.896;2023-09-19T11:51:57;5.10;;;3.43;;
2305;SDS011;1161;51.922;8.896;2023-09-19T11:54:29;9.27;;;3.97;;
2305;SDS011;1161;51.922;8.896;2023-09-19T11:56:57;9.17;;;2.83;;
2305;SDS011;1161;51.922;8.896;2023-09-19T11:59:25;7.27;;;3.50;;
2305;SDS011;1161;51.922;8.896;2023-09-19T12:01:54;8.13;;;2.80;;
2305;SDS011;1161;51.922;8.896;2023-09-19T12:04:32;12.50;;;3.60;;
2305;SDS011;1161;51.922;8.896;2023-09-19T12:07:03;21.03;;;3.93;;
2305;SDS011;1161;51.922;8.896;2023-09-19T12:09:33;15.40;;;3.63;;
2305;SDS011;1161;51.922;8.896;2023-09-19T12:12:00;5.10;;;3.53;;
2305;SDS011;1161;51.922;8.896;2023-09-19T12:14:26;9.20;;;2.83;;
2305;SDS011;1161;51.922;8.896;2023-09-19T12:16:54;29.83;;;4.60;;
2305;SDS011;1161;51.922;8.896;2023-09-19T12:19:22;11.33;;;3.83;;
2305;SDS011;1161;51.922;8.896;2023-09-19T12:21:58;7.67;;;2.97;;
2305;SDS011;1161;51.922;8.896;2023-09-19T12:24:30;7.57;;;3.13;;
2305;SDS011;1161;51.922;8.896;2023-09-19T12:27:01;5.70;;;2.73;;
2305;SDS011;1161;51.922;8.896;2023-09-19T12:29:31;16.90;;;2.90;;
2305;SDS011;1161;51.922;8.896;2023-09-19T12:31:59;16.87;;;3.27;;
2305;SDS011;1161;51.922;8.896;2023-09-19T12:34:29;11.43;;;4.30;;
2305;SDS011;1161;51.922;8.896;2023-09-19T12:37:03;24.67;;;3.90;;
2305;SDS011;1161;51.922;8.896;2023-09-19T12:39:37;3.80;;;2.57;;
2305;SDS011;1161;51.922;8.896;2023-09-19T12:42:12;8.13;;;2.83;;
2305;SDS011;1161;51.922;8.896;2023-09-19T12:44:41;10.70;;;3.00;;
2305;SDS011;1161;51.922;8.896;2023-09-19T12:47:09;3.63;;;3.13;;
2305;SDS011;1161;51.922;8.896;2023-09-19T12:52:48;7.00;;;2.83;;
2305;SDS011;1161;51.922;8.896;2023-09-19T12:55:22;14.80;;;3.80;;
2305;SDS011;1161;51.922;8.896;2023-09-19T12:58:02;3.67;;;2.07;;
2305;SDS011;1161;51.922;8.896;2023-09-19T13:00:35;5.73;;;2.53;;
2305;SDS011;1161;51.922;8.896;2023-09-19T13:03:14;8.20;;;4.30;;
2305;SDS011;1161;51.922;8.896;2023-09-19T13:05:49;13.20;;;2.90;;
2305;SDS011;1161;51.922;8.896;2023-09-19T13:08:18;12.60;;;3.30;;
2305;SDS011;1161;51.922;8.896;2023-09-19T13:11:02;11.80;;;4.57;;
2305;SDS011;1161;51.922;8.896;2023-09-19T13:13:30;12.20;;;3.10;;
2305;SDS011;1161;51.922;8.896;2023-09-19T13:15:57;10.80;;;3.10;;
2305;SDS011;1161;51.922;8.896;2023-09-19T13:18:25;9.67;;;4.10;;
2305;SDS011;1161;51.922;8.896;2023-09-19T13:21:05;7.60;;;3.13;;
2305;SDS011;1161;51.922;8.896;2023-09-19T13:23:32;6.37;;;2.33;;
2305;SDS011;1161;51.922;8.896;2023-09-19T13:25:58;7.60;;;2.63;;
2305;SDS011;1161;51.922;8.896;2023-09-19T13:28:25;3.40;;;2.20;;
2305;SDS011;1161;51.922;8.896;2023-09-19T13:30:55;3.80;;;2.70;;
2305;SDS011;1161;51.922;8.896;2023-09-19T13:33:22;14.33;;;3.27;;
2305;SDS011;1161;51.922;8.896;2023-09-19T13:35:49;7.77;;;3.20;;
2305;SDS011;1161;51.922;8.896;2023-09-19T13:38:16;10.50;;;2.57;;
2305;SDS011;1161;51.922;8.896;2023-09-19T13:40:44;5.03;;;2.70;;
2305;SDS011;1161;51.922;8.896;2023-09-19T13:43:11;5.13;;;2.60;;
2305;SDS011;1161;51.922;8.896;2023-09-19T13:45:38;6.83;;;2.20;;
2305;SDS011;1161;51.922;8.896;2023-09-19T13:48:09;11.10;;;3.23;;
2305;SDS011;1161;51.922;8.896;2023-09-19T13:50:37;11.33;;;2.90;;
2305;SDS011;1161;51.922;8.896;2023-09-19T13:53:07;10.00;;;2.53;;
2305;SDS011;1161;51.922;8.896;2023-09-19T13:55:34;7.23;;;2.80;;
2305;SDS011;1161;51.922;8.896;2023-09-19T13:58:03;5.37;;;2.47;;
2305;SDS011;1161;51.922;8.896;2023-09-19T14:00:32;10.93;;;2.67;;
2305;SDS011;1161;51.922;8.896;2023-09-19T14:02:59;10.33;;;2.63;;
2305;SDS011;1161;51.922;8.896;2023-09-19T14:05:28;2.03;;;1.73;;
2305;SDS011;1161;51.922;8.896;2023-09-19T14:07:55;8.30;;;2.90;;
2305;SDS011;1161;51.922;8.896;2023-09-19T14:10:24;5.77;;;1.60;;
2305;SDS011;1161;51.922;8.896;2023-09-19T14:12:53;7.70;;;3.40;;
2305;SDS011;1161;51.922;8.896;2023-09-19T14:15:20;4.47;;;1.97;;
2305;SDS011;1161;51.922;8.896;2023-09-19T14:17:55;7.40;;;2.13;;
2305;SDS011;1161;51.922;8.896;2023-09-19T14:20:22;3.07;;;2.20;;
2305;SDS011;1161;51.922;8.896;2023-09-19T14:22:51;10.13;;;2.40;;
2305;SDS011;1161;51.922;8.896;2023-09-19T14:25:17;12.30;;;3.00;;
2305;SDS011;1161;51.922;8.896;2023-09-19T14:27:44;4.30;;;2.70;;
2305;SDS011;1161;51.922;8.896;2023-09-19T14:30:12;12.33;;;2.60;;
2305;SDS011;1161;51.922;8.896;2023-09-19T14:32:40;5.13;;;1.90;;
2305;SDS011;1161;51.922;8.896;2023-09-19T14:35:07;9.27;;;2.40;;
2305;SDS011;1161;51.922;8.896;2023-09-19T14:37:35;9.20;;;1.90;;
2305;SDS011;1161;51.922;8.896;2023-09-19T14:40:05;5.03;;;1.50;;
2305;SDS011;1161;51.922;8.896;2023-09-19T14:42:34;11.63;;;2.60;;
2305;SDS011;1161;51.922;8.896;2023-09-19T14:45:04;3.17;;;2.57;;
2305;SDS011;1161;51.922;8.896;2023-09-19T14:47:32;7.47;;;2.90;;
2305;SDS011;1161;51.922;8.896;2023-09-19T14:50:00;10.90;;;4.20;;
2305;SDS011;1161;51.922;8.896;2023-09-19T14:52:31;5.27;;;2.30;;
2305;SDS011;1161;51.922;8.896;2023-09-19T14:54:59;9.33;;;2.53;;
2305;SDS011;1161;51.922;8.896;2023-09-19T14:57:27;4.20;;;1.90;;
2305;SDS011;1161;51.922;8.896;2023-09-19T14:59:54;12.00;;;2.33;;
2305;SDS011;1161;51.922;8.896;2023-09-19T15:02:21;3.10;;;2.00;;
2305;SDS011;1161;51.922;8.896;2023-09-19T15:04:48;1.80;;;1.70;;
2305;SDS011;1161;51.922;8.896;2023-09-19T15:07:16;8.37;;;2.80;;
2305;SDS011;1161;51.922;8.896;2023-09-19T15:09:43;7.57;;;2.37;;
2305;SDS011;1161;51.922;8.896;2023-09-19T15:12:10;6.83;;;2.80;;
2305;SDS011;1161;51.922;8.896;2023-09-19T15:14:41;7.80;;;2.37;;
2305;SDS011;1161;51.922;8.896;2023-09-19T15:17:08;6.00;;;2.13;;
2305;SDS011;1161;51.922;8.896;2023-09-19T15:19:35;5.00;;;2.00;;
2305;SDS011;1161;51.922;8.896;2023-09-19T15:22:03;3.07;;;2.23;;
2305;SDS011;1161;51.922;8.896;2023-09-19T15:24:31;5.10;;;2.90;;
2305;SDS011;1161;51.922;8.896;2023-09-19T15:26:58;4.63;;;2.30;;
2305;SDS011;1161;51.922;8.896;2023-09-19T15:29:24;3.07;;;2.03;;
2305;SDS011;1161;51.922;8.896;2023-09-19T15:31:54;12.43;;;2.60;;
2305;SDS011;1161;51.922;8.896;2023-09-19T15:34:24;8.17;;;2.10;;
2305;SDS011;1161;51.922;8.896;2023-09-19T15:36:50;4.90;;;2.80;;
2305;SDS011;1161;51.922;8.896;2023-09-19T15:39:18;5.20;;;2.10;;
2305;SDS011;1161;51.922;8.896;2023-09-19T15:41:48;6.40;;;2.47;;
2305;SDS011;1161;51.922;8.896;2023-09-19T15:44:17;11.13;;;2.00;;
2305;SDS011;1161;51.922;8.896;2023-09-19T15:46:45;4.70;;;2.20;;
2305;SDS011;1161;51.922;8.896;2023-09-19T15:49:14;14.10;;;3.50;;
2305;SDS011;1161;51.922;8.896;2023-09-19T15:51:40;7.60;;;2.13;;
2305;SDS011;1161;51.922;8.896;2023-09-19T15:54:11;4.17;;;2.23;;